Time;durP1;ratioP1;P1;durP2;ratioP2;P2;SDS_P1;SDS_P2;PMS_P1;PMS_P2;Temp;Humidity;BMP_temperature;BMP_pressure;BME280_temperature;BME280_humidity;BME280_pressure;Samples;Min_cycle;Max_cycle;Signal;HPM_P1;HPM_P2
2021/12/29 00:02:12;;;;;;;5.15;1.33;;;8.70;99.90;;;;;;5049254;28;20052;-89
2021/12/29 00:04:37;;;;;;;6.60;1.00;;;8.70;99.90;;;;;;5048613;28;20071;-86
2021/12/29 00:07:03;;;;;;;5.28;1.13;;;8.70;99.90;;;;;;5048931;28;20045;-84
2021/12/29 00:09:32;;;;;;;7.03;1.30;;;8.70;99.90;;;;;;5048718;28;20025;-84
2021/12/29 00:11:58;;;;;;;6.57;1.40;;;8.70;99.90;;;;;;5048523;28;20044;-84
2021/12/29 00:14:24;;;;;;;5.00;0.98;;;8.80;99.90;;;;;;5048662;28;20035;-85
2021/12/29 00:16:51;;;;;;;3.75;1.00;;;8.70;99.90;;;;;;5048620;28;20033;-87
2021/12/29 00:19:16;;;;;;;3.38;1.00;;;8.70;99.90;;;;;;5031733;28;20033;-88
2021/12/29 00:21:42;;;;;;;6.80;1.27;;;8.70;99.90;;;;;;5048280;28;20055;-85
2021/12/29 00:24:08;;;;;;;6.82;2.42;;;8.70;99.90;;;;;;5048544;28;20035;-83
2021/12/29 00:26:34;;;;;;;5.38;1.90;;;8.70;99.90;;;;;;5048926;28;20083;-84
2021/12/29 00:29:00;;;;;;;5.07;1.60;;;8.70;99.90;;;;;;5048285;28;20033;-89
2021/12/29 00:31:28;;;;;;;5.00;1.42;;;8.80;99.90;;;;;;5047922;28;20148;-85
2021/12/29 00:34:13;;;;;;;4.07;1.75;;;8.70;99.90;;;;;;5050758;28;20051;-83
2021/12/29 00:36:57;;;;;;;4.22;1.65;;;8.80;99.90;;;;;;5050893;28;20059;-84
2021/12/29 00:39:58;;;;;;;7.72;2.17;;;8.80;99.90;;;;;;5004083;28;20038;-85
2021/12/29 00:42:43;;;;;;;9.15;1.95;;;8.80;99.90;;;;;;5027636;28;20103;-84
2021/12/29 00:45:41;;;;;;;7.75;2.75;;;8.80;99.90;;;;;;5032955;28;20077;-85
2021/12/29 00:48:13;;;;;;;5.70;2.15;;;8.70;99.90;;;;;;5012371;28;20493;-87
2021/12/29 00:50:39;;;;;;;6.25;2.13;;;8.70;99.90;;;;;;5028625;28;20115;-88
2021/12/29 00:53:06;;;;;;;4.40;1.83;;;8.70;99.90;;;;;;5028113;28;20030;-85
2021/12/29 00:55:32;;;;;;;8.88;2.03;;;8.70;99.90;;;;;;5034086;28;20040;-86
2021/12/29 00:57:58;;;;;;;6.82;2.47;;;8.70;99.90;;;;;;5018459;28;20021;-88
2021/12/29 01:00:25;;;;;;;4.88;2.03;;;8.70;99.90;;;;;;5034735;28;20041;-86
2021/12/29 01:02:51;;;;;;;6.85;1.65;;;8.70;99.90;;;;;;5034419;28;20037;-86
2021/12/29 01:05:18;;;;;;;4.88;1.73;;;8.70;99.90;;;;;;5034575;28;20053;-84
2021/12/29 01:07:44;;;;;;;7.45;2.03;;;8.70;99.90;;;;;;5034627;28;20056;-89
2021/12/29 01:10:11;;;;;;;7.95;2.22;;;8.70;99.90;;;;;;5034748;28;20021;-85
2021/12/29 01:12:36;;;;;;;5.40;2.10;;;8.70;99.90;;;;;;5035015;28;20038;-89
2021/12/29 01:15:05;;;;;;;4.47;1.92;;;8.70;99.90;;;;;;5034880;28;20090;-90
2021/12/29 01:17:31;;;;;;;4.72;2.10;;;8.70;99.90;;;;;;5017998;28;20056;-85
2021/12/29 01:19:58;;;;;;;5.35;1.90;;;8.70;99.90;;;;;;5034111;28;20477;-83
2021/12/29 01:22:24;;;;;;;7.03;2.30;;;8.60;99.90;;;;;;5034481;28;20060;-83
2021/12/29 01:24:49;;;;;;;3.22;1.63;;;8.70;99.90;;;;;;5034093;28;20032;-87
2021/12/29 01:27:16;;;;;;;6.30;2.20;;;8.70;99.90;;;;;;5017921;28;20100;-87
2021/12/29 01:29:42;;;;;;;5.68;2.65;;;8.70;99.90;;;;;;5034175;28;20037;-86
2021/12/29 01:32:08;;;;;;;7.53;2.15;;;8.70;99.90;;;;;;5018327;28;20497;-84
2021/12/29 01:34:35;;;;;;;6.60;2.03;;;8.70;99.90;;;;;;5052257;28;20036;-84
2021/12/29 01:37:01;;;;;;;6.53;2.17;;;8.70;99.90;;;;;;5034524;28;20038;-84
2021/12/29 01:39:27;;;;;;;4.90;1.98;;;8.70;99.90;;;;;;5046343;28;20029;-83
2021/12/29 01:41:55;;;;;;;4.65;2.15;;;8.70;99.90;;;;;;5037579;28;20033;-88
2021/12/29 01:44:24;;;;;;;7.00;2.88;;;8.70;99.90;;;;;;5037779;28;20032;-84
2021/12/29 01:46:50;;;;;;;6.13;2.28;;;8.70;99.90;;;;;;5037265;28;20123;-86
2021/12/29 01:49:16;;;;;;;7.72;2.28;;;8.70;99.90;;;;;;5053859;28;20033;-85
2021/12/29 01:51:50;;;;;;;8.32;3.08;;;8.70;99.90;;;;;;5053792;28;20033;-84
2021/12/29 01:54:25;;;;;;;8.18;2.95;;;8.70;99.90;;;;;;5037782;28;20473;-83
2021/12/29 01:56:57;;;;;;;7.35;3.45;;;8.80;99.90;;;;;;5037380;28;20044;-85
2021/12/29 01:59:25;;;;;;;7.30;3.28;;;8.80;99.90;;;;;;5053639;28;20029;-87
2021/12/29 02:01:51;;;;;;;9.15;4.07;;;8.80;99.90;;;;;;5053803;28;20059;-85
2021/12/29 02:04:18;;;;;;;9.80;4.00;;;8.80;99.90;;;;;;5037231;28;20033;-83
2021/12/29 02:06:44;;;;;;;7.20;2.92;;;8.80;99.90;;;;;;5033053;28;20504;-84
2021/12/29 02:09:10;;;;;;;11.30;3.47;;;8.80;99.90;;;;;;5034182;28;20029;-84
2021/12/29 02:11:37;;;;;;;8.85;2.78;;;8.80;99.90;;;;;;5033998;28;20097;-84
2021/12/29 02:14:06;;;;;;;7.65;3.17;;;8.80;99.90;;;;;;5050865;28;20024;-85
2021/12/29 02:16:32;;;;;;;7.72;3.15;;;8.80;99.90;;;;;;5034246;28;20029;-85
2021/12/29 02:19:01;;;;;;;9.02;3.67;;;8.70;99.90;;;;;;5033934;28;20066;-86
2021/12/29 02:21:29;;;;;;;10.20;2.85;;;8.70;99.90;;;;;;5034093;28;20505;-85
2021/12/29 02:26:30;;;;;;;12.13;3.88;;;8.70;99.90;;;;;;5050293;28;20452;-88
2021/12/29 02:28:56;;;;;;;12.45;4.45;;;8.70;99.90;;;;;;5033883;28;20112;-82
2021/12/29 02:31:23;;;;;;;12.75;4.50;;;8.70;99.90;;;;;;5033443;28;20057;-83
2021/12/29 02:33:49;;;;;;;11.45;3.92;;;8.70;99.90;;;;;;5033787;28;20481;-85
2021/12/29 02:36:18;;;;;;;15.32;5.45;;;8.70;99.90;;;;;;5033706;28;20055;-84
2021/12/29 02:38:49;;;;;;;14.02;5.25;;;8.70;99.90;;;;;;5030200;28;20022;-83
2021/12/29 02:41:14;;;;;;;15.35;5.07;;;8.70;99.90;;;;;;5047178;28;20057;-84
2021/12/29 02:43:41;;;;;;;18.33;5.03;;;8.80;99.90;;;;;;5047134;28;20037;-88
2021/12/29 02:46:11;;;;;;;17.48;5.72;;;8.80;99.90;;;;;;5013890;28;20041;-87
2021/12/29 02:48:53;;;;;;;15.70;6.05;;;8.80;99.90;;;;;;5014246;28;20083;-85
2021/12/29 02:51:19;;;;;;;15.98;5.55;;;8.80;99.90;;;;;;5046679;28;20037;-83
2021/12/29 02:53:45;;;;;;;18.10;5.68;;;8.80;99.90;;;;;;5013424;28;20060;-83
2021/12/29 02:56:11;;;;;;;16.13;5.97;;;8.80;99.90;;;;;;5046340;28;20061;-83
2021/12/29 02:58:37;;;;;;;15.98;5.70;;;8.80;99.90;;;;;;5046208;28;20236;-84
2021/12/29 03:01:07;;;;;;;14.07;4.32;;;8.70;99.90;;;;;;5013565;28;20045;-84
2021/12/29 03:03:33;;;;;;;11.88;4.28;;;8.70;99.90;;;;;;5013361;28;20099;-83
2021/12/29 03:05:59;;;;;;;15.50;5.53;;;8.70;99.90;;;;;;5029561;28;20045;-84
2021/12/29 03:08:25;;;;;;;10.30;4.43;;;8.70;99.90;;;;;;5045986;28;20030;-83
2021/12/29 03:10:53;;;;;;;11.13;4.93;;;8.70;99.90;;;;;;5013384;28;20101;-89
2021/12/29 03:13:31;;;;;;;12.82;4.68;;;8.70;99.90;;;;;;5013049;28;20037;-84
2021/12/29 03:15:57;;;;;;;14.57;4.53;;;8.70;99.90;;;;;;5013269;28;20033;-83
2021/12/29 03:18:24;;;;;;;13.98;4.50;;;8.70;99.90;;;;;;5012661;28;20041;-84
2021/12/29 03:20:49;;;;;;;9.73;3.42;;;8.70;99.90;;;;;;5013037;28;20084;-86
2021/12/29 03:23:16;;;;;;;11.13;4.60;;;8.70;99.90;;;;;;5046076;28;20029;-85
2021/12/29 03:25:41;;;;;;;13.63;4.53;;;8.70;99.90;;;;;;5046327;28;20140;-84
2021/12/29 03:28:08;;;;;;;13.05;4.20;;;8.70;99.90;;;;;;5046079;28;20497;-83
2021/12/29 03:30:36;;;;;;;10.48;4.10;;;8.70;99.90;;;;;;5012665;28;20056;-84
2021/12/29 03:33:04;;;;;;;9.27;4.00;;;8.70;99.90;;;;;;5045746;28;20030;-84
2021/12/29 03:35:36;;;;;;;16.85;4.55;;;8.70;99.90;;;;;;5013034;28;20025;-85
2021/12/29 03:38:04;;;;;;;11.50;4.10;;;8.70;99.90;;;;;;5012971;28;20037;-82
2021/12/29 03:40:30;;;;;;;11.48;3.55;;;8.60;99.90;;;;;;5032283;28;20059;-85
2021/12/29 03:42:56;;;;;;;7.72;2.55;;;8.60;99.90;;;;;;5032342;28;20036;-83
2021/12/29 03:45:22;;;;;;;6.95;2.97;;;8.60;99.90;;;;;;5032184;28;20037;-83
2021/12/29 03:47:48;;;;;;;8.73;3.47;;;8.60;99.90;;;;;;5048735;28;20033;-85
2021/12/29 03:50:14;;;;;;;9.85;3.45;;;8.60;99.90;;;;;;5032263;28;20389;-83
2021/12/29 03:52:40;;;;;;;13.15;3.55;;;8.60;99.90;;;;;;5032299;28;20024;-81
2021/12/29 03:55:07;;;;;;;15.68;4.38;;;8.60;99.90;;;;;;5031851;28;20088;-83
2021/12/29 03:57:33;;;;;;;17.08;3.65;;;8.60;99.90;;;;;;5048772;28;20283;-83
2021/12/29 03:59:58;;;;;;;11.68;3.88;;;8.60;99.90;;;;;;5031698;28;20272;-82
2021/12/29 04:02:24;;;;;;;9.98;4.90;;;8.50;99.90;;;;;;5048388;28;20037;-83
2021/12/29 04:04:49;;;;;;;15.43;5.30;;;8.50;99.90;;;;;;5032314;28;20032;-83
2021/12/29 04:07:15;;;;;;;13.35;4.57;;;8.60;99.90;;;;;;5031967;28;20439;-83
2021/12/29 04:09:41;;;;;;;10.93;4.63;;;8.60;99.90;;;;;;5031587;28;20021;-83
2021/12/29 04:12:07;;;;;;;16.52;4.63;;;8.60;99.90;;;;;;5031878;28;20040;-83
2021/12/29 04:14:32;;;;;;;15.93;5.20;;;8.50;99.90;;;;;;5031850;28;20035;-84
2021/12/29 04:17:07;;;;;;;18.88;4.55;;;8.60;99.90;;;;;;5031868;28;20040;-83
2021/12/29 04:20:54;;;;;;;13.75;4.55;;;8.60;99.90;;;;;;5031577;28;20033;-83
2021/12/29 04:22:19;;;;;;;13.70;4.63;;;8.60;99.90;;;;;;5064575;28;20036;-83
2021/12/29 04:24:44;;;;;;;13.02;6.10;;;8.50;99.90;;;;;;5031461;28;20039;-86
2021/12/29 04:27:10;;;;;;;14.52;4.18;;;8.50;99.90;;;;;;5031649;28;20044;-83
2021/12/29 04:29:36;;;;;;;17.70;5.63;;;8.50;99.90;;;;;;5030766;28;20089;-83
2021/12/29 04:32:01;;;;;;;17.88;4.95;;;8.50;99.90;;;;;;5031508;28;20064;-84
2021/12/29 04:34:27;;;;;;;21.73;5.60;;;8.50;99.90;;;;;;5047826;28;20039;-84
2021/12/29 04:36:53;;;;;;;15.70;5.60;;;8.50;99.90;;;;;;5031486;28;20029;-85
2021/12/29 04:39:18;;;;;;;12.00;4.57;;;8.50;99.90;;;;;;5047735;28;20032;-84
2021/12/29 04:41:44;;;;;;;18.52;4.70;;;8.50;99.90;;;;;;5080919;28;20043;-84
2021/12/29 04:44:09;;;;;;;11.85;4.90;;;8.50;99.90;;;;;;5031286;28;20116;-84
2021/12/29 04:46:37;;;;;;;15.65;4.88;;;8.50;99.90;;;;;;5031156;28;20041;-83
2021/12/29 04:49:04;;;;;;;18.85;5.78;;;8.50;99.90;;;;;;5064163;28;20067;-83
2021/12/29 04:51:35;;;;;;;13.82;4.80;;;8.50;99.90;;;;;;5031246;28;20056;-86
2021/12/29 04:54:04;;;;;;;10.63;4.50;;;8.50;99.90;;;;;;5064476;28;20033;-84
2021/12/29 04:56:29;;;;;;;13.02;5.43;;;8.50;99.90;;;;;;5031117;28;20040;-84
2021/12/29 04:58:55;;;;;;;11.85;5.30;;;8.40;99.90;;;;;;5080719;28;20037;-84
2021/12/29 05:01:21;;;;;;;13.80;4.97;;;8.50;99.90;;;;;;5047822;28;20115;-82
2021/12/29 05:03:47;;;;;;;10.70;4.55;;;8.40;99.90;;;;;;5031295;28;20041;-89
2021/12/29 05:08:38;;;;;;;14.82;4.65;;;8.40;99.90;;;;;;5047590;28;20067;-84
2021/12/29 05:11:06;;;;;;;11.20;3.67;;;8.50;99.90;;;;;;5030936;28;20059;-83
2021/12/29 05:13:35;;;;;;;13.50;3.90;;;8.40;99.90;;;;;;5064177;28;20051;-84
2021/12/29 05:16:01;;;;;;;13.85;4.35;;;8.40;99.90;;;;;;5030880;28;20040;-83
2021/12/29 05:18:29;;;;;;;13.35;4.13;;;8.40;99.90;;;;;;5031361;28;20029;-91
2021/12/29 05:20:56;;;;;;;7.53;3.40;;;8.40;99.90;;;;;;5066531;28;20029;-85
2021/12/29 05:23:22;;;;;;;11.60;4.03;;;8.40;99.90;;;;;;5032180;28;20033;-85
2021/12/29 05:25:49;;;;;;;13.48;4.13;;;8.40;99.90;;;;;;5062897;28;20029;-86
2021/12/29 05:28:17;;;;;;;12.75;4.40;;;8.40;99.90;;;;;;5051957;28;20040;-85
2021/12/29 05:30:44;;;;;;;7.57;2.95;;;8.40;99.90;;;;;;5034356;28;20099;-87
2021/12/29 05:33:10;;;;;;;12.88;4.85;;;8.40;99.90;;;;;;5034341;28;20041;-89
2021/12/29 05:35:35;;;;;;;13.02;5.57;;;8.40;99.90;;;;;;5051793;28;20043;-86
2021/12/29 05:38:02;;;;;;;11.70;5.28;;;8.40;99.90;;;;;;5034552;28;20029;-86
2021/12/29 05:40:27;;;;;;;11.40;4.07;;;8.40;99.90;;;;;;5053162;28;20036;-86
2021/12/29 05:42:54;;;;;;;10.55;3.90;;;8.40;99.90;;;;;;5039532;28;20104;-85
2021/12/29 05:45:20;;;;;;;11.82;5.78;;;8.40;99.90;;;;;;5039109;28;20032;-92
2021/12/29 05:47:47;;;;;;;8.02;4.28;;;8.40;99.90;;;;;;5037983;28;20032;-86
2021/12/29 05:50:16;;;;;;;9.10;4.57;;;8.40;99.90;;;;;;5038926;28;20025;-85
2021/12/29 05:52:42;;;;;;;9.48;5.00;;;8.40;99.90;;;;;;5039347;28;20029;-85
2021/12/29 05:55:09;;;;;;;11.80;6.13;;;8.40;99.90;;;;;;5038632;28;20108;-86
2021/12/29 05:57:34;;;;;;;12.57;6.43;;;8.40;99.90;;;;;;5038074;28;20037;-86
2021/12/29 06:00:01;;;;;;;9.35;5.55;;;8.40;99.90;;;;;;5035214;28;20040;-84
2021/12/29 06:02:26;;;;;;;11.75;5.93;;;8.40;99.90;;;;;;5036838;28;20047;-86
2021/12/29 06:04:52;;;;;;;12.20;6.03;;;8.40;99.90;;;;;;5055993;28;20048;-87
2021/12/29 06:07:17;;;;;;;14.90;6.32;;;8.40;99.90;;;;;;5039780;28;20063;-90
2021/12/29 06:09:43;;;;;;;12.70;6.70;;;8.40;99.90;;;;;;5056646;28;20024;-87
2021/12/29 06:12:09;;;;;;;13.30;6.82;;;8.40;99.90;;;;;;5055816;28;20057;-87
2021/12/29 06:14:34;;;;;;;12.00;7.20;;;8.40;99.90;;;;;;5038982;28;20048;-86
2021/12/29 06:17:00;;;;;;;11.70;6.13;;;8.40;99.90;;;;;;5039187;28;20032;-86
2021/12/29 06:19:26;;;;;;;10.48;5.40;;;8.40;99.90;;;;;;5039349;28;20136;-86
2021/12/29 06:21:51;;;;;;;11.13;6.50;;;8.40;99.90;;;;;;5039641;28;20037;-85
2021/12/29 06:24:17;;;;;;;10.85;6.55;;;8.40;99.90;;;;;;5039447;28;20025;-87
2021/12/29 06:26:42;;;;;;;16.20;7.95;;;8.40;99.90;;;;;;5055721;28;20052;-87
2021/12/29 06:29:08;;;;;;;11.90;7.90;;;8.40;99.90;;;;;;5038081;28;20029;-87
2021/12/29 06:31:34;;;;;;;11.65;7.82;;;8.40;99.90;;;;;;5034979;28;20079;-86
2021/12/29 06:34:02;;;;;;;13.10;8.38;;;8.40;99.90;;;;;;5035379;28;20036;-86
2021/12/29 06:36:27;;;;;;;11.10;7.82;;;8.40;99.90;;;;;;5036058;28;20036;-85
2021/12/29 06:38:53;;;;;;;12.20;8.27;;;8.40;99.90;;;;;;5034967;28;20029;-85
2021/12/29 06:41:19;;;;;;;12.30;7.18;;;8.40;99.90;;;;;;5037498;28;20029;-86
2021/12/29 06:43:45;;;;;;;9.35;6.20;;;8.40;99.90;;;;;;5036332;28;20025;-85
2021/12/29 06:46:11;;;;;;;12.07;6.57;;;8.40;99.90;;;;;;5036225;28;20037;-85
2021/12/29 06:48:37;;;;;;;12.05;7.28;;;8.40;99.90;;;;;;5036353;28;20064;-90
2021/12/29 06:51:02;;;;;;;10.30;6.35;;;8.40;99.90;;;;;;5034159;28;20033;-85
2021/12/29 06:53:30;;;;;;;11.90;7.90;;;8.40;99.90;;;;;;5035866;28;20032;-85
2021/12/29 06:55:56;;;;;;;9.15;6.00;;;8.40;99.90;;;;;;5037217;28;20037;-85
2021/12/29 06:58:22;;;;;;;8.85;5.70;;;8.40;99.90;;;;;;5019838;28;20048;-83
2021/12/29 07:00:48;;;;;;;8.95;6.32;;;8.40;99.90;;;;;;5034653;28;20092;-85
2021/12/29 07:03:13;;;;;;;11.23;7.22;;;8.40;99.90;;;;;;5050988;28;20040;-85
2021/12/29 07:05:40;;;;;;;14.32;8.63;;;8.40;99.90;;;;;;5034318;28;20052;-85
2021/12/29 07:08:07;;;;;;;13.65;7.40;;;8.40;99.90;;;;;;5051467;28;20033;-85
2021/12/29 07:10:33;;;;;;;12.55;8.48;;;8.40;99.90;;;;;;5049708;28;20032;-85
2021/12/29 07:12:58;;;;;;;14.60;9.18;;;8.40;99.90;;;;;;5034736;28;20040;-88
2021/12/29 07:15:24;;;;;;;13.68;8.18;;;8.40;99.90;;;;;;5036086;28;20037;-85
2021/12/29 07:17:50;;;;;;;13.50;7.32;;;8.40;99.90;;;;;;5036799;28;20032;-86
2021/12/29 07:20:16;;;;;;;10.00;6.70;;;8.40;99.90;;;;;;5053069;28;20060;-88
2021/12/29 07:22:41;;;;;;;15.95;8.15;;;8.40;99.90;;;;;;5036022;28;20082;-88
2021/12/29 07:25:07;;;;;;;12.02;7.25;;;8.40;99.90;;;;;;5038103;28;20033;-85
2021/12/29 07:27:34;;;;;;;19.25;9.43;;;8.40;99.90;;;;;;5036517;28;20037;-87
2021/12/29 07:30:00;;;;;;;16.02;8.40;;;8.40;99.90;;;;;;5034235;28;20044;-84
2021/12/29 07:32:27;;;;;;;13.38;7.80;;;8.40;99.90;;;;;;5021557;28;20060;-86
2021/12/29 07:34:53;;;;;;;15.48;7.05;;;8.40;99.90;;;;;;5032069;28;20048;-85
2021/12/29 07:37:18;;;;;;;15.75;8.85;;;8.40;99.90;;;;;;5033669;28;20029;-86
2021/12/29 07:39:44;;;;;;;16.90;8.43;;;8.40;99.90;;;;;;5019503;28;20052;-84
2021/12/29 07:42:10;;;;;;;18.73;9.73;;;8.40;99.90;;;;;;5029100;28;20036;-85
2021/12/29 07:44:43;;;;;;;10.80;7.53;;;8.40;99.90;;;;;;5013523;28;20029;-84
2021/12/29 07:47:10;;;;;;;11.20;7.38;;;8.40;99.90;;;;;;5012614;28;20456;-84
2021/12/29 07:49:36;;;;;;;15.50;8.13;;;8.30;99.90;;;;;;5012736;28;20062;-84
2021/12/29 07:52:01;;;;;;;15.15;8.95;;;8.30;99.90;;;;;;5029116;28;20037;-84
2021/12/29 07:54:27;;;;;;;14.95;9.75;;;8.30;99.90;;;;;;5012530;28;20037;-84
2021/12/29 07:56:53;;;;;;;18.15;10.00;;;8.30;99.90;;;;;;5012573;28;20048;-84
2021/12/29 07:59:19;;;;;;;17.65;8.10;;;8.40;99.90;;;;;;5012218;28;20037;-84
2021/12/29 08:01:45;;;;;;;17.30;9.70;;;8.30;99.90;;;;;;5012571;28;20033;-84
2021/12/29 08:04:15;;;;;;;11.57;7.90;;;8.30;99.90;;;;;;5011569;28;20049;-85
2021/12/29 08:06:42;;;;;;;18.40;10.38;;;8.30;99.90;;;;;;5012198;28;20045;-84
2021/12/29 08:09:09;;;;;;;12.13;7.93;;;8.30;99.90;;;;;;5011777;28;20115;-84
2021/12/29 08:11:36;;;;;;;15.18;8.82;;;8.30;99.90;;;;;;5028077;28;20045;-84
2021/12/29 08:14:02;;;;;;;15.70;8.18;;;8.30;99.90;;;;;;5011648;28;20052;-84
2021/12/29 08:16:28;;;;;;;15.65;8.93;;;8.30;99.90;;;;;;5028122;28;20030;-84
2021/12/29 08:18:53;;;;;;;13.30;8.30;;;8.30;99.90;;;;;;5045514;28;20029;-85
2021/12/29 08:21:19;;;;;;;17.45;8.15;;;8.30;99.90;;;;;;5027750;28;20036;-84
2021/12/29 08:23:45;;;;;;;12.95;7.40;;;8.30;99.90;;;;;;5027904;28;20044;-84
2021/12/29 08:26:10;;;;;;;10.65;6.35;;;8.30;99.90;;;;;;5011289;28;20041;-84
2021/12/29 08:29:16;;;;;;;13.35;6.68;;;8.30;99.90;;;;;;5027563;28;20196;-84
2021/12/29 08:31:42;;;;;;;13.30;6.75;;;8.30;99.90;;;;;;4910141;29;20055;-83
2021/12/29 08:34:08;;;;;;;16.67;6.93;;;8.30;99.90;;;;;;4910453;29;20050;-84
2021/12/29 08:36:33;;;;;;;9.38;5.82;;;8.30;99.90;;;;;;4910531;29;20071;-83
2021/12/29 08:38:59;;;;;;;15.43;8.23;;;8.30;99.90;;;;;;4918521;29;20091;-85
2021/12/29 08:41:25;;;;;;;18.00;8.70;;;8.30;99.90;;;;;;4945720;29;20075;-84
2021/12/29 08:43:50;;;;;;;19.25;9.63;;;8.30;99.90;;;;;;4929475;29;20048;-85
2021/12/29 08:46:17;;;;;;;19.65;9.50;;;8.30;99.90;;;;;;4929468;29;20040;-84
2021/12/29 08:48:43;;;;;;;20.30;11.25;;;8.30;99.90;;;;;;4929207;29;20040;-84
2021/12/29 08:51:09;;;;;;;23.13;11.65;;;8.30;99.90;;;;;;4929534;29;20040;-88
2021/12/29 08:53:36;;;;;;;22.88;10.07;;;8.30;99.90;;;;;;4929603;29;20252;-85
2021/12/29 08:56:02;;;;;;;20.40;9.75;;;8.30;99.90;;;;;;4929293;29;20083;-85
2021/12/29 08:58:28;;;;;;;22.13;10.68;;;8.30;99.90;;;;;;4929350;29;20035;-85
2021/12/29 09:00:55;;;;;;;20.90;9.57;;;8.30;99.90;;;;;;4928662;29;20074;-85
2021/12/29 09:03:21;;;;;;;26.42;11.90;;;8.30;99.90;;;;;;4929181;29;20070;-84
2021/12/29 09:05:48;;;;;;;24.90;12.60;;;8.30;99.90;;;;;;4913535;29;20051;-85
2021/12/29 09:08:13;;;;;;;22.67;10.57;;;8.30;99.90;;;;;;4966425;28;20400;-84
2021/12/29 09:10:39;;;;;;;17.52;9.05;;;8.40;99.90;;;;;;5030747;28;20112;-85
2021/12/29 09:13:05;;;;;;;19.67;11.52;;;8.40;99.90;;;;;;5030619;28;20284;-85
2021/12/29 09:15:31;;;;;;;19.08;10.10;;;8.40;99.90;;;;;;5048360;28;20105;-84
2021/12/29 09:17:59;;;;;;;19.23;10.65;;;8.40;99.90;;;;;;5050829;28;20033;-84
2021/12/29 09:20:31;;;;;;;22.63;12.23;;;8.40;99.90;;;;;;5069085;28;20029;-86
2021/12/29 09:23:07;;;;;;;24.02;12.05;;;8.40;99.90;;;;;;5068990;28;20093;-84
2021/12/29 09:25:35;;;;;;;18.52;10.43;;;8.40;99.90;;;;;;5068911;28;20071;-84
2021/12/29 09:28:01;;;;;;;18.23;9.20;;;8.40;99.90;;;;;;5034244;28;20085;-84
2021/12/29 09:30:30;;;;;;;17.92;9.10;;;8.40;99.90;;;;;;5084106;28;20061;-85
2021/12/29 09:32:56;;;;;;;27.70;12.63;;;8.40;99.90;;;;;;5050780;28;20041;-85
2021/12/29 09:35:22;;;;;;;19.15;10.40;;;8.40;99.90;;;;;;5034298;28;20029;-84
2021/12/29 09:37:50;;;;;;;21.13;10.98;;;8.40;99.90;;;;;;5034286;28;20472;-85
2021/12/29 09:40:20;;;;;;;16.83;9.50;;;8.40;99.90;;;;;;5050596;28;20036;-85
2021/12/29 09:42:46;;;;;;;17.92;10.07;;;8.50;99.90;;;;;;5045724;28;20468;-85
2021/12/29 09:45:12;;;;;;;17.73;8.60;;;8.50;99.90;;;;;;5049562;28;20039;-85
2021/12/29 09:47:38;;;;;;;15.85;8.88;;;8.60;99.90;;;;;;5055803;28;20032;-89
2021/12/29 09:50:13;;;;;;;18.02;9.38;;;8.50;99.90;;;;;;5055570;28;20029;-87
2021/12/29 09:52:40;;;;;;;15.82;9.73;;;8.60;99.90;;;;;;5039368;28;20037;-88
2021/12/29 09:55:09;;;;;;;17.73;9.43;;;8.60;99.90;;;;;;5039474;28;20032;-86
2021/12/29 09:57:37;;;;;;;17.25;10.05;;;8.60;99.90;;;;;;5039537;28;20033;-86
2021/12/29 10:00:12;;;;;;;18.02;9.02;;;8.60;99.90;;;;;;5038752;28;20029;-86
2021/12/29 10:02:37;;;;;;;17.77;9.65;;;8.60;99.90;;;;;;5038135;28;20029;-86
2021/12/29 10:05:04;;;;;;;19.40;10.32;;;8.60;99.90;;;;;;5054702;28;20586;-88
2021/12/29 10:07:30;;;;;;;18.55;10.27;;;8.60;99.90;;;;;;5038625;28;20581;-89
2021/12/29 10:09:56;;;;;;;19.40;11.80;;;8.60;99.90;;;;;;5037983;28;20036;-88
2021/12/29 10:12:22;;;;;;;21.88;11.50;;;8.70;99.90;;;;;;5038437;28;20033;-87
2021/12/29 10:14:55;;;;;;;20.75;11.88;;;8.70;99.90;;;;;;5038732;28;20105;-89
2021/12/29 10:17:26;;;;;;;17.00;10.13;;;8.70;99.90;;;;;;5037114;28;20100;-92
2021/12/29 10:20:02;;;;;;;18.17;10.95;;;8.70;99.90;;;;;;5036710;28;20064;-86
2021/12/29 10:22:28;;;;;;;21.35;11.75;;;8.70;99.90;;;;;;5038351;28;20036;-86
2021/12/29 10:25:10;;;;;;;23.15;11.45;;;8.70;99.90;;;;;;5037173;28;20033;-86
2021/12/29 10:27:37;;;;;;;17.40;10.75;;;8.70;99.90;;;;;;5035585;28;20075;-86
2021/12/29 10:30:24;;;;;;;17.23;10.95;;;8.70;99.90;;;;;;5070614;28;20108;-85
2021/12/29 10:32:51;;;;;;;18.50;11.38;;;8.80;99.90;;;;;;5036893;28;20104;-88
2021/12/29 10:35:35;;;;;;;19.98;11.40;;;8.70;99.90;;;;;;5052433;28;20442;-88
2021/12/29 10:38:14;;;;;;;19.30;10.77;;;8.70;99.90;;;;;;5035354;28;20025;-87
2021/12/29 10:40:42;;;;;;;16.23;10.10;;;8.80;99.90;;;;;;5036504;28;20037;-87
2021/12/29 10:43:07;;;;;;;20.75;11.38;;;8.80;99.90;;;;;;5035758;28;20029;-89
2021/12/29 10:45:36;;;;;;;19.40;11.10;;;8.70;99.90;;;;;;5036060;28;20067;-89
2021/12/29 10:48:15;;;;;;;18.65;11.00;;;8.80;99.90;;;;;;5035856;28;20037;-87
2021/12/29 10:51:05;;;;;;;22.38;11.88;;;8.80;99.90;;;;;;5035334;28;20055;-85
2021/12/29 10:53:33;;;;;;;19.17;10.77;;;8.80;99.90;;;;;;5051806;28;20123;-89
2021/12/29 10:55:59;;;;;;;19.17;10.45;;;8.90;99.90;;;;;;5035560;28;20033;-85
2021/12/29 10:58:29;;;;;;;21.75;10.77;;;8.90;99.90;;;;;;5035411;28;20055;-89
2021/12/29 11:01:07;;;;;;;19.27;10.23;;;8.80;99.90;;;;;;5035616;28;20440;-88
2021/12/29 11:03:41;;;;;;;20.67;11.85;;;9.00;99.90;;;;;;5034347;28;20033;-88
2021/12/29 11:06:12;;;;;;;18.60;12.23;;;9.00;99.90;;;;;;5035320;28;20048;-86
2021/12/29 11:08:48;;;;;;;26.77;15.73;;;8.90;99.90;;;;;;5051019;28;20029;-92
2021/12/29 11:11:16;;;;;;;18.55;11.50;;;8.90;99.90;;;;;;5034695;28;20046;-88
2021/12/29 11:13:43;;;;;;;21.40;12.38;;;9.00;99.90;;;;;;5034591;28;20032;-90
2021/12/29 11:16:09;;;;;;;15.77;9.88;;;8.90;99.90;;;;;;5050310;28;20033;-89
2021/12/29 11:18:48;;;;;;;14.02;9.02;;;9.00;99.90;;;;;;5034761;28;20029;-89
2021/12/29 11:21:32;;;;;;;16.55;9.88;;;9.00;99.90;;;;;;5034138;28;20032;-89
2021/12/29 11:24:15;;;;;;;19.15;9.32;;;8.90;99.90;;;;;;5050166;28;20033;-88
2021/12/29 11:26:41;;;;;;;10.43;7.45;;;9.00;99.90;;;;;;5034890;28;20040;-88
2021/12/29 11:29:13;;;;;;;13.30;8.38;;;9.00;99.90;;;;;;5034837;28;20081;-88
2021/12/29 11:31:43;;;;;;;12.23;8.05;;;9.00;99.90;;;;;;5033291;28;20052;-88
2021/12/29 11:34:12;;;;;;;;;;;9.00;99.90;;;;;;5051056;28;20052;-87
2021/12/29 11:36:37;;;;;;;12.55;8.20;;;9.10;99.90;;;;;;5050822;28;19961;-85
2021/12/29 11:39:03;;;;;;;15.57;10.23;;;9.00;99.90;;;;;;5046057;28;20025;-88
2021/12/29 11:41:29;;;;;;;13.20;9.23;;;9.00;99.90;;;;;;5034267;28;20037;-87
2021/12/29 11:43:55;;;;;;;13.05;8.95;;;9.00;99.90;;;;;;5051021;28;20033;-88
2021/12/29 11:46:24;;;;;;;12.43;7.82;;;9.00;99.90;;;;;;5050711;28;20047;-86
2021/12/29 11:48:51;;;;;;;16.38;8.80;;;9.00;99.90;;;;;;5049378;28;20032;-85
2021/12/29 11:51:28;;;;;;;14.80;9.27;;;9.00;99.90;;;;;;5048288;28;20059;-87
2021/12/29 11:54:01;;;;;;;12.20;8.52;;;8.90;99.90;;;;;;5048147;28;20032;-84
2021/12/29 11:56:27;;;;;;;13.68;9.30;;;8.90;99.90;;;;;;5048142;28;20040;-83
2021/12/29 11:59:03;;;;;;;13.30;8.25;;;8.90;99.90;;;;;;5048004;28;20025;-84
2021/12/29 12:01:31;;;;;;;11.43;8.02;;;9.00;99.90;;;;;;5047845;28;20039;-86
2021/12/29 12:04:00;;;;;;;10.95;8.25;;;9.00;99.90;;;;;;5047934;28;20060;-86
2021/12/29 12:06:32;;;;;;;14.63;9.35;;;8.90;99.90;;;;;;5030978;28;20444;-86
2021/12/29 12:09:17;;;;;;;12.73;8.25;;;8.90;99.90;;;;;;5048680;28;20040;-84
2021/12/29 12:11:49;;;;;;;12.00;7.10;;;8.80;99.90;;;;;;5048194;28;20033;-85
2021/12/29 12:14:27;;;;;;;10.95;7.63;;;8.80;99.90;;;;;;5032194;28;20033;-91
2021/12/29 12:17:03;;;;;;;13.02;6.93;;;8.80;99.90;;;;;;5031622;28;20036;-86
2021/12/29 12:19:31;;;;;;;10.18;6.32;;;8.80;99.90;;;;;;5030958;28;20033;-85
2021/12/29 12:22:09;;;;;;;12.65;6.43;;;8.80;99.90;;;;;;5047483;28;20040;-84
2021/12/29 12:24:38;;;;;;;12.52;6.35;;;8.80;99.90;;;;;;5047876;28;20029;-85
2021/12/29 12:27:10;;;;;;;8.77;5.13;;;8.90;99.90;;;;;;5048716;28;20052;-89
2021/12/29 12:29:38;;;;;;;8.13;5.38;;;8.90;99.90;;;;;;5028640;28;20036;-85
2021/12/29 12:32:09;;;;;;;10.95;6.50;;;8.90;99.90;;;;;;5047676;28;20057;-87
2021/12/29 12:34:55;;;;;;;6.95;4.43;;;8.90;99.90;;;;;;5028590;28;20272;-87
2021/12/29 12:37:30;;;;;;;9.10;5.97;;;8.90;99.90;;;;;;5045361;28;20032;-88
2021/12/29 12:40:13;;;;;;;11.82;7.05;;;8.90;99.90;;;;;;5065341;28;20036;-85
2021/12/29 12:42:40;;;;;;;10.30;6.22;;;8.90;99.90;;;;;;5030622;28;20029;-85
2021/12/29 12:45:20;;;;;;;15.55;7.07;;;8.90;99.90;;;;;;5031746;28;20060;-88
2021/12/29 12:47:45;;;;;;;10.63;6.15;;;9.00;99.90;;;;;;5023139;28;20045;-91
2021/12/29 12:50:24;;;;;;;9.48;5.90;;;9.00;99.90;;;;;;5032232;28;20052;-87
2021/12/29 12:52:52;;;;;;;7.88;5.05;;;9.00;99.90;;;;;;5030403;28;20033;-85
2021/12/29 12:55:18;;;;;;;9.38;5.82;;;9.00;99.90;;;;;;5031679;28;20025;-92
2021/12/29 12:57:47;;;;;;;9.25;4.95;;;9.00;99.90;;;;;;5047642;28;20127;-87
2021/12/29 13:00:17;;;;;;;10.88;5.22;;;9.00;99.90;;;;;;5030742;28;20088;-87